createdAt,value
2022-12-18T00:01:28.528Z,-4.96
2022-12-18T00:03:56.943Z,-4.95
2022-12-18T00:06:25.621Z,-4.91
2022-12-18T00:08:53.160Z,-4.93
2022-12-18T00:11:22.676Z,-4.96
2022-12-18T00:13:50.278Z,-4.99
2022-12-18T00:16:23.079Z,-4.95
2022-12-18T00:18:51.646Z,-4.96
2022-12-18T00:21:19.517Z,-4.99
2022-12-18T00:23:48.404Z,-5.07
2022-12-18T00:26:18.442Z,-5.10
2022-12-18T00:28:46.058Z,-5.06
2022-12-18T00:31:18.940Z,-5.08
2022-12-18T00:33:46.074Z,-5.18
2022-12-18T00:36:25.934Z,-5.47
2022-12-18T00:38:54.962Z,-5.44
2022-12-18T00:41:41.281Z,-5.41
2022-12-18T00:44:11.244Z,-5.34
2022-12-18T00:46:38.467Z,-5.39
2022-12-18T00:49:06.180Z,-5.39
2022-12-18T00:51:33.452Z,-5.31
2022-12-18T00:54:00.812Z,-5.37
2022-12-18T00:56:27.884Z,-5.34
2022-12-18T00:58:55.397Z,-5.32
2022-12-18T01:01:22.988Z,-5.36
2022-12-18T01:03:50.225Z,-5.32
2022-12-18T01:06:17.842Z,-5.33
2022-12-18T01:08:45.176Z,-5.37
2022-12-18T01:11:15.282Z,-5.35
2022-12-18T01:13:42.993Z,-5.50
2022-12-18T01:16:12.867Z,-5.61
2022-12-18T01:18:40.310Z,-5.59
2022-12-18T01:21:12.435Z,-5.61
2022-12-18T01:23:39.967Z,-5.64
2022-12-18T01:26:12.810Z,-5.59
2022-12-18T01:28:41.046Z,-5.61
2022-12-18T01:31:34.519Z,-5.57
2022-12-18T01:34:02.604Z,-5.62
2022-12-18T01:36:37.588Z,-5.60
2022-12-18T01:39:07.257Z,-5.64
2022-12-18T01:41:57.258Z,-5.74
2022-12-18T01:45:02.088Z,-5.82
2022-12-18T01:47:48.651Z,-5.77
2022-12-18T01:50:25.992Z,-5.71
2022-12-18T01:52:56.310Z,-5.70
2022-12-18T01:55:26.353Z,-5.70
2022-12-18T01:57:55.052Z,-5.76
2022-12-18T02:00:24.237Z,-5.82
2022-12-18T02:02:51.633Z,-5.79
2022-12-18T02:05:29.122Z,-5.79
2022-12-18T02:08:08.269Z,-5.79
2022-12-18T02:11:14.143Z,-5.76
2022-12-18T02:14:14.016Z,-5.75
2022-12-18T02:17:04.544Z,-5.75
2022-12-18T02:19:37.407Z,-5.76
2022-12-18T02:22:36.412Z,-5.97
2022-12-18T02:25:22.256Z,-5.97
2022-12-18T02:27:50.153Z,-6.10
2022-12-18T02:30:17.753Z,-6.17
2022-12-18T02:32:48.193Z,-6.33
2022-12-18T02:35:18.845Z,-6.29
2022-12-18T02:37:46.968Z,-6.44
2022-12-18T02:40:15.474Z,-6.34
2022-12-18T02:42:42.713Z,-6.20
2022-12-18T02:45:10.290Z,-6.17
2022-12-18T02:47:39.839Z,-6.09
2022-12-18T02:50:30.813Z,-6.02
2022-12-18T02:53:00.917Z,-5.96
2022-12-18T02:55:41.806Z,-5.95
2022-12-18T02:58:47.901Z,-5.86
2022-12-18T03:01:18.789Z,-5.84
2022-12-18T03:03:53.393Z,-5.98
2022-12-18T03:06:27.678Z,-5.91
2022-12-18T03:09:01.037Z,-5.88
2022-12-18T03:11:48.617Z,-5.83
2022-12-18T03:14:17.197Z,-5.80
2022-12-18T03:16:45.320Z,-5.78
2022-12-18T03:19:17.962Z,-5.76
2022-12-18T03:21:48.725Z,-5.77
2022-12-18T03:24:16.335Z,-5.77
2022-12-18T03:26:46.039Z,-5.76
2022-12-18T03:29:22.784Z,-5.76
2022-12-18T03:31:54.295Z,-5.75
2022-12-18T03:34:24.985Z,-5.77
2022-12-18T03:36:52.155Z,-5.80
2022-12-18T03:39:20.228Z,-5.89
2022-12-18T03:42:02.973Z,-5.98
2022-12-18T03:44:41.013Z,-5.90
2022-12-18T03:47:16.949Z,-5.95
2022-12-18T03:50:02.075Z,-5.97
2022-12-18T03:52:31.852Z,-5.99
2022-12-18T03:55:00.523Z,-6.09
2022-12-18T03:57:30.614Z,-6.12
2022-12-18T04:00:14.938Z,-6.21
2022-12-18T04:02:50.768Z,-6.20
2022-12-18T04:05:18.942Z,-6.14
2022-12-18T04:07:47.714Z,-6.10
2022-12-18T04:10:16.106Z,-6.10
2022-12-18T04:12:43.272Z,-6.12
2022-12-18T04:15:11.770Z,-6.13
2022-12-18T04:17:39.712Z,-6.14
2022-12-18T04:20:07.134Z,-6.13
2022-12-18T04:22:34.289Z,-6.13
2022-12-18T04:25:01.473Z,-6.13
2022-12-18T04:27:28.599Z,-6.12
2022-12-18T04:29:55.763Z,-6.13
2022-12-18T04:32:22.864Z,-6.17
2022-12-18T04:34:49.964Z,-6.20
2022-12-18T04:37:17.102Z,-6.20
2022-12-18T04:39:44.216Z,-6.21
2022-12-18T04:42:11.380Z,-6.23
2022-12-18T04:44:38.513Z,-6.27
2022-12-18T04:47:05.662Z,-6.29
2022-12-18T04:49:32.776Z,-6.30
2022-12-18T04:51:59.929Z,-6.32
2022-12-18T04:54:27.024Z,-6.34
2022-12-18T04:56:54.169Z,-6.37
2022-12-18T04:59:22.349Z,-6.39
2022-12-18T05:01:50.808Z,-6.40
2022-12-18T05:04:18.131Z,-6.37
2022-12-18T05:06:45.374Z,-6.41
2022-12-18T05:09:12.515Z,-6.38
2022-12-18T05:11:39.673Z,-6.37
2022-12-18T05:14:06.793Z,-6.33
2022-12-18T05:16:34.005Z,-6.30
2022-12-18T05:19:01.109Z,-6.28
2022-12-18T05:21:28.242Z,-6.28
2022-12-18T05:23:55.361Z,-6.29
2022-12-18T05:26:22.446Z,-6.28
2022-12-18T05:28:49.606Z,-6.28
2022-12-18T05:31:16.757Z,-6.28
2022-12-18T05:33:44.272Z,-6.35
2022-12-18T05:36:12.338Z,-6.30
2022-12-18T05:38:40.209Z,-6.37
2022-12-18T05:41:08.228Z,-6.33
2022-12-18T05:43:37.457Z,-6.41
2022-12-18T05:46:06.814Z,-6.49
2022-12-18T05:48:34.454Z,-6.42
2022-12-18T05:51:07.444Z,-6.33
2022-12-18T05:53:35.198Z,-6.31
2022-12-18T05:56:07.714Z,-6.26
2022-12-18T05:58:35.463Z,-6.29
2022-12-18T06:01:10.849Z,-6.24
2022-12-18T06:03:38.171Z,-6.20
2022-12-18T06:06:05.681Z,-6.23
2022-12-18T06:08:32.837Z,-6.21
2022-12-18T06:10:59.977Z,-6.20
2022-12-18T06:13:27.088Z,-6.19
2022-12-18T06:15:54.237Z,-6.24
2022-12-18T06:18:21.343Z,-6.30
2022-12-18T06:20:56.840Z,-6.42
2022-12-18T06:23:24.021Z,-6.43
2022-12-18T06:25:51.569Z,-6.34
2022-12-18T06:28:19.252Z,-6.37
2022-12-18T06:30:47.862Z,-6.44
2022-12-18T06:33:15.996Z,-6.35
2022-12-18T06:35:43.251Z,-6.25
2022-12-18T06:38:10.415Z,-6.20
2022-12-18T06:40:39.475Z,-6.15
2022-12-18T06:43:07.091Z,-6.10
2022-12-18T06:45:34.621Z,-6.08
2022-12-18T06:48:01.967Z,-6.07
2022-12-18T06:50:29.231Z,-6.07
2022-12-18T06:52:57.025Z,-6.08
2022-12-18T06:55:24.207Z,-6.10
2022-12-18T06:57:51.347Z,-6.10
2022-12-18T07:00:18.768Z,-6.11
2022-12-18T07:02:45.963Z,-6.20
2022-12-18T07:05:13.144Z,-6.16
2022-12-18T07:07:40.369Z,-6.18
2022-12-18T07:10:07.790Z,-6.18
2022-12-18T07:12:35.041Z,-6.13
2022-12-18T07:15:02.123Z,-6.23
2022-12-18T07:17:30.461Z,-6.25
2022-12-18T07:19:57.616Z,-6.21
2022-12-18T07:22:26.260Z,-6.22
2022-12-18T07:24:53.347Z,-6.22
2022-12-18T07:27:20.489Z,-6.17
2022-12-18T07:29:47.599Z,-6.12
2022-12-18T07:32:14.923Z,-6.12
2022-12-18T07:34:42.331Z,-6.12
2022-12-18T07:37:09.451Z,-6.07
2022-12-18T07:39:36.592Z,-6.07
2022-12-18T07:42:22.436Z,-6.14
2022-12-18T07:44:50.314Z,-6.07
2022-12-18T07:47:17.424Z,-6.05
2022-12-18T07:49:44.642Z,-6.03
2022-12-18T07:52:13.270Z,-6.02
2022-12-18T07:54:41.211Z,-6.05
2022-12-18T07:57:16.538Z,-6.05
2022-12-18T07:59:54.502Z,-6.04
2022-12-18T08:02:21.678Z,-6.05
2022-12-18T08:04:49.088Z,-6.05
2022-12-18T08:07:16.177Z,-6.04
2022-12-18T08:09:43.306Z,-5.98
2022-12-18T08:12:10.415Z,-5.96
2022-12-18T08:14:37.823Z,-5.95
2022-12-18T08:17:05.006Z,-5.93
2022-12-18T08:19:32.156Z,-5.93
2022-12-18T08:21:59.254Z,-5.96
2022-12-18T08:24:26.608Z,-5.98
2022-12-18T08:27:20.917Z,-5.97
2022-12-18T08:29:40.833Z,-6.03
2022-12-18T08:32:08.231Z,-6.07
2022-12-18T08:34:35.484Z,-6.03
2022-12-18T08:37:02.585Z,-6.02
2022-12-18T08:39:29.783Z,-5.98
2022-12-18T08:42:15.692Z,-5.97
2022-12-18T08:44:42.856Z,-5.98
2022-12-18T08:47:09.969Z,-5.96
2022-12-18T08:49:37.381Z,-6.01
2022-12-18T08:52:04.704Z,-6.01
2022-12-18T08:54:31.882Z,-5.95
2022-12-18T08:56:58.975Z,-5.93
2022-12-18T08:59:26.738Z,-5.97
2022-12-18T09:01:55.016Z,-5.90
2022-12-18T09:04:23.215Z,-5.92
2022-12-18T09:06:50.583Z,-5.91
2022-12-18T09:09:18.019Z,-5.86
2022-12-18T09:11:45.368Z,-5.79
2022-12-18T09:14:12.817Z,-5.82
2022-12-18T09:16:40.166Z,-5.80
2022-12-18T09:19:07.690Z,-5.76
2022-12-18T09:21:37.961Z,-5.74
2022-12-18T09:24:08.017Z,-5.69
2022-12-18T09:26:36.811Z,-5.73
2022-12-18T09:29:04.587Z,-5.76
2022-12-18T09:31:31.834Z,-5.69
2022-12-18T09:33:59.177Z,-5.65
2022-12-18T09:36:26.471Z,-5.59
2022-12-18T09:38:54.267Z,-5.51
2022-12-18T09:41:41.521Z,-5.40
2022-12-18T09:48:30.034Z,-5.32
2022-12-18T09:51:02.132Z,-5.25
2022-12-18T09:53:34.287Z,-5.23
2022-12-18T09:56:03.078Z,-5.22
2022-12-18T09:58:46.166Z,-5.20
2022-12-18T10:01:15.860Z,-5.20
2022-12-18T10:03:43.399Z,-5.20
2022-12-18T10:06:19.433Z,-5.20
2022-12-18T10:08:47.056Z,-5.17
2022-12-18T10:11:34.009Z,-5.15
2022-12-18T10:14:15.543Z,-5.12
2022-12-18T10:16:52.914Z,-5.08
2022-12-18T10:19:24.097Z,-5.06
2022-12-18T10:22:03.445Z,-4.97
2022-12-18T10:24:41.372Z,-4.93
2022-12-18T10:27:19.930Z,-4.89
2022-12-18T10:29:47.522Z,-4.84
2022-12-18T10:32:23.207Z,-4.80
2022-12-18T10:34:59.868Z,-4.72
2022-12-18T10:37:29.786Z,-4.65
2022-12-18T10:40:10.678Z,-4.64
2022-12-18T10:42:38.283Z,-4.63
2022-12-18T10:45:16.475Z,-4.62
2022-12-18T10:47:49.559Z,-4.60
2022-12-18T10:50:26.241Z,-4.54
2022-12-18T10:53:00.919Z,-4.55
2022-12-18T10:55:33.642Z,-4.52
2022-12-18T10:58:26.571Z,-4.45
2022-12-18T11:01:21.234Z,-4.38
2022-12-18T11:03:51.842Z,-4.38
2022-12-18T11:06:25.415Z,-4.34
2022-12-18T11:09:08.054Z,-4.36
2022-12-18T11:11:40.622Z,-4.34
2022-12-18T11:14:23.569Z,-4.29
2022-12-18T11:19:41.110Z,-4.21
2022-12-18T11:22:22.867Z,-4.19
2022-12-18T11:25:29.434Z,-4.17
2022-12-18T11:27:43.166Z,-4.15
2022-12-18T11:30:11.314Z,-4.20
2022-12-18T11:32:40.678Z,-4.27
2022-12-18T11:35:31.881Z,-4.25
2022-12-18T11:38:08.043Z,-4.22
2022-12-18T11:40:41.120Z,-4.19
2022-12-18T11:43:37.305Z,-4.12
2022-12-18T11:46:19.557Z,-4.14
2022-12-18T11:49:07.076Z,-4.19
2022-12-18T11:52:13.705Z,-4.17
2022-12-18T11:54:41.048Z,-4.14
2022-12-18T11:57:08.334Z,-4.14
2022-12-18T11:59:59.380Z,-4.19
2022-12-18T12:02:45.374Z,-4.17
2022-12-18T12:05:43.648Z,-4.17
2022-12-18T12:08:19.375Z,-4.13
2022-12-18T12:11:08.969Z,-4.09
2022-12-18T12:13:51.344Z,-4.09
2022-12-18T12:16:36.127Z,-4.17
2022-12-18T12:19:17.302Z,-4.15
2022-12-18T12:21:59.557Z,-4.12
2022-12-18T12:24:55.751Z,-4.05
2022-12-18T12:27:52.143Z,-4.01
2022-12-18T12:30:22.989Z,-3.95
2022-12-18T12:33:28.054Z,-4.00
2022-12-18T12:36:13.568Z,-3.98
2022-12-18T12:39:02.356Z,-3.93
2022-12-18T12:41:52.142Z,-3.92
2022-12-18T12:44:30.895Z,-3.89
2022-12-18T12:47:01.777Z,-3.90
2022-12-18T12:49:36.310Z,-3.90
2022-12-18T12:52:12.296Z,-3.87
2022-12-18T12:54:40.098Z,-3.88
2022-12-18T12:57:23.505Z,-3.84
2022-12-18T13:00:04.735Z,-3.84
2022-12-18T13:02:44.111Z,-3.85
2022-12-18T13:05:23.412Z,-3.88
2022-12-18T13:08:00.783Z,-3.94
2022-12-18T13:10:34.097Z,-3.90
2022-12-18T13:13:13.353Z,-3.87
2022-12-18T13:15:42.375Z,-3.87
2022-12-18T13:18:09.663Z,-3.85
2022-12-18T13:20:44.710Z,-3.82
2022-12-18T13:23:24.378Z,-3.78
2022-12-18T13:25:53.870Z,-3.75
2022-12-18T13:28:49.746Z,-3.74
2022-12-18T13:31:41.839Z,-3.71
2022-12-18T13:34:27.914Z,-3.73
2022-12-18T13:37:40.817Z,-3.74
2022-12-18T13:40:40.415Z,-3.73
2022-12-18T13:43:22.858Z,-3.72
2022-12-18T13:46:27.139Z,-3.69
2022-12-18T13:49:06.553Z,-3.70
2022-12-18T13:51:35.216Z,-3.75
2022-12-18T13:54:41.523Z,-3.76
2022-12-18T13:57:35.624Z,-3.71
2022-12-18T14:00:31.540Z,-3.69
2022-12-18T14:02:59.575Z,-3.67
2022-12-18T14:05:32.742Z,-3.63
2022-12-18T14:08:03.135Z,-3.59
2022-12-18T14:10:49.167Z,-3.59
2022-12-18T14:13:24.507Z,-3.59
2022-12-18T14:15:52.245Z,-3.58
2022-12-18T14:18:45.368Z,-3.55
2022-12-18T14:21:24.724Z,-3.57
2022-12-18T14:24:19.661Z,-3.56
2022-12-18T14:26:48.677Z,-3.61
2022-12-18T14:29:24.830Z,-3.75
2022-12-18T14:32:13.484Z,-3.77
2022-12-18T14:34:49.739Z,-3.74
2022-12-18T14:37:22.390Z,-3.72
2022-12-18T14:40:11.042Z,-3.77
2022-12-18T14:42:38.844Z,-3.76
2022-12-18T14:45:41.620Z,-3.78
2022-12-18T14:48:12.752Z,-3.88
2022-12-18T14:50:41.609Z,-3.91
2022-12-18T14:53:21.012Z,-3.92
2022-12-18T14:55:49.752Z,-3.91
2022-12-18T14:58:18.214Z,-3.93
2022-12-18T15:00:45.543Z,-3.99
2022-12-18T15:03:20.082Z,-3.99
2022-12-18T15:05:47.939Z,-4.05
2022-12-18T15:08:29.478Z,-4.12
2022-12-18T15:10:57.843Z,-4.18
2022-12-18T15:13:25.745Z,-4.11
2022-12-18T15:15:54.563Z,-4.13
2022-12-18T15:18:42.685Z,-4.12
2022-12-18T15:21:11.776Z,-4.08
2022-12-18T15:23:45.302Z,-4.02
2022-12-18T15:26:15.539Z,-4.01
2022-12-18T15:28:45.676Z,-4.01
2022-12-18T15:31:13.212Z,-3.98
2022-12-18T15:33:45.159Z,-3.97
2022-12-18T15:36:18.533Z,-3.98
2022-12-18T15:38:54.395Z,-3.99
2022-12-18T15:41:25.051Z,-3.97
2022-12-18T15:43:53.666Z,-3.94
2022-12-18T15:46:23.376Z,-3.94
2022-12-18T15:49:01.174Z,-3.96
2022-12-18T15:51:38.713Z,-3.96
2022-12-18T15:54:07.473Z,-3.95
2022-12-18T15:56:53.489Z,-3.96
2022-12-18T15:59:21.770Z,-3.99
2022-12-18T16:01:53.870Z,-3.99
2022-12-18T16:04:22.727Z,-4.02
2022-12-18T16:07:13.884Z,-4.11
2022-12-18T16:09:38.089Z,-4.10
2022-12-18T16:12:06.861Z,-4.10
2022-12-18T16:14:34.367Z,-4.16
2022-12-18T16:17:05.013Z,-4.26
2022-12-18T16:19:32.322Z,-4.33
2022-12-18T16:21:59.998Z,-4.32
2022-12-18T16:24:32.502Z,-4.28
2022-12-18T16:27:01.113Z,-4.24
2022-12-18T16:29:29.363Z,-4.22
2022-12-18T16:36:14.479Z,-4.20
2022-12-18T16:38:41.795Z,-4.20
2022-12-18T16:41:34.853Z,-4.16
2022-12-18T16:44:02.267Z,-4.20
2022-12-18T17:25:44.264Z,-4.10
2022-12-18T18:26:48.454Z,-4.20
2022-12-18T19:04:14.455Z,-4.36
2022-12-18T19:06:42.659Z,-4.39
2022-12-18T19:27:09.269Z,-4.40
2022-12-18T19:29:36.835Z,-4.41
2022-12-18T19:32:05.284Z,-4.42
2022-12-18T19:34:32.479Z,-4.43
2022-12-18T19:37:00.066Z,-4.43
2022-12-18T19:39:27.592Z,-4.43
2022-12-18T19:41:54.675Z,-4.44
2022-12-18T19:44:21.851Z,-4.40
2022-12-18T19:46:51.951Z,-4.40
2022-12-18T19:58:28.095Z,-4.47
2022-12-18T20:00:55.330Z,-4.48
2022-12-18T20:03:28.887Z,-4.51
2022-12-18T20:06:33.912Z,-4.52
2022-12-18T20:09:04.949Z,-4.52
2022-12-18T20:11:33.393Z,-4.57
2022-12-18T20:14:03.827Z,-4.55
2022-12-18T20:16:31.033Z,-4.58
2022-12-18T20:18:58.840Z,-4.54
2022-12-18T20:21:26.436Z,-4.54
2022-12-18T20:23:55.699Z,-4.55
2022-12-18T20:26:24.004Z,-4.52
2022-12-18T20:28:51.519Z,-4.51
2022-12-18T20:31:18.840Z,-4.53
2022-12-18T20:33:48.659Z,-4.54
2022-12-18T20:36:20.155Z,-4.59
2022-12-18T20:38:50.840Z,-4.59
2022-12-18T20:41:20.733Z,-4.57
2022-12-18T20:43:48.296Z,-4.56
2022-12-18T20:46:17.119Z,-4.55
2022-12-18T20:48:44.768Z,-4.54
2022-12-18T20:51:14.658Z,-4.55
2022-12-18T20:53:42.469Z,-4.55
2022-12-18T21:00:36.374Z,-4.56
